Dubuque, Iowa
Current Conditions -  °F | °C
As of 8:02 PM on Sunday 21 Dec 2014 (Local Time) from KDBQ Reporting Station
Haze Haze  
Wind Chill: 23°   Ceiling: 1000
Heat Index: 34°   Visibility: 5mi
Dew Point: 31°   Wind: 20mph
Humidity: 89%   Direction: 160°SSE
Pressure: 29.91"   Gusts: 29mph
Location:  42.5°N, 90.66°W
Report Text: KDBQ 220202Z AUTO 16017G25KT 5SM BR OVC010 01/M01 A2991 RMK AO2 T00111006
Loading
Personal Weather Stations






























Interactive Weather Map New forecast layout! Learn more

10-Day Weather Forecast

Advertisements
Track Severe Weather on mobile